Cucamonga, CA (91729)

11:06 PM PDT on September 28, 2016 (GMT -0700)
Milliken/Mountain View | | Change Station

Elev 1295 ft 34.12 °N, 117.56 °W | Updated 12 minutes ago

Partly Cloudy
Partly Cloudy
76.2 °F
Feels Like 78 °F
N
1.0
Wind Variable Wind from NE
Gusts 2.0 mph

Today
High -- | Low -- °F
--% Chance of Precip.
Yesterday
High -- | Low -- °F
Precip. -- in
Pressure 29.92 in
Visibility 10.0 miles
Clouds Few 13000 ft
Heat Index 78 °F
Dew Point 55 °F
Humidity 48%
Rainfall 0.00 in
Snow Depth Not available.
6:43 AM 6:37 PM
Waning Crescent, 3% visible
METAR KONT 290553Z 22004KT 10SM FEW130 25/09 A2997 RMK AO2 SLP131 T02500094 10322 20250 51011
Pressure 29.92 in
Visibility 10.0 miles
Clouds Few 13000 ft
Heat Index 78 °F
Dew Point 55 °F
Humidity 48%
Rainfall 0.00 in
Snow Depth Not available.
6:43 AM 6:37 PM
Waning Crescent, 3% visible
METAR KONT 290553Z 22004KT 10SM FEW130 25/09 A2997 RMK AO2 SLP131 T02500094 10322 20250 51011

10-Day Weather Forecast

Almanac

Astronomy

Sep. 28, 2016 Rise Set
Actual Time
Civil Twilight
Nautical Twilight
Astronomical Twilight
Moon
Length of Visible Light
Length of Day
Tomorrow will be .
, % of the Moon is Illuminated

Today's Extremes

State Highs State Lows

Community

WunderPhotos

Upload Photos

1,942,446 photos uploaded!

WunderBlog® & News

Nearby

Air Quality

  Air Quality AQ Index Pollutant
Not available.

Snow Depth

Station Depth Elevation

Earthquake Activity

City Distance Mag. Time & Date
Minimum magnitude displayed is 2.5.

Coastal Water Temperatures

Place Temperature

Stations

Nearby Weather Stations

Station Location Temp. Windchill Dew Point Humidity Wind Precip. Elev Updated Type
                   

Watches & Warnings

There are currently no watches in effect.